Погода Пеховицена 2 недели

Нижнесилезское воеводство, Польша

16 - 28 июля
  • 16июля
    Сегодня
    +13°
    +27°
    Небольшая облачность
    ВремяПогодаТемператураВлажностьДавлениеВетер, м/сВероятность осадков
    02:00Ясно и безоблачно+18°C74 %729 мм1.8 м/с2 %
    05:00Облачно с прояснениями+17°C82 %729 мм1.1 м/с2 %
    08:00Облачно с прояснениями+22°C74 %729 мм1.3 м/с10 %
    11:00Облачно с прояснениями+24°C76 %730 мм2.9 м/с34 %
    14:00Небольшая облачность+24°C74 %730 мм2.6 м/с35 %
    17:00Небольшая облачность+26°C67 %731 мм3.5 м/с30 %
    20:00Облачно с прояснениями+24°C78 %731 мм2.0 м/с20 %
    23:00Небольшая облачность+18°C84 %732 мм1.1 м/с5 %
  • 17июля
    Среда
    +12°
    +26°
    Небольшая облачность
    ВремяПогодаТемператураВлажностьДавлениеВетер, м/сВероятность осадков
    02:00Практически безоблачно+17°C76 %733 мм1.4 м/с2 %
    05:00Ясно и безоблачно+14°C79 %733 мм0.7 м/с2 %
    08:00Ясно и безоблачно+19°C63 %735 мм1.1 м/с2 %
    11:00Облачно с прояснениями+24°C54 %735 мм2.8 м/с3 %
    14:00Небольшая облачность+26°C47 %735 мм3.4 м/с6 %
    17:00Пасмурно, сплошная облачность+25°C45 %735 мм3.7 м/с4 %
    20:00Небольшая облачность+22°C65 %736 мм2.1 м/с5 %
    23:00Небольшая облачность+15°C78 %737 мм0.7 м/с2 %
  • 18июля
    Четверг
    +14°
    +26°
    Ясно и безоблачно
    ВремяПогодаТемператураВлажностьДавлениеВетер, м/сВероятность осадков
    02:00Ясно и безоблачно+13°C77 %737 мм0.8 м/с2 %
    05:00Ясно и безоблачно+12°C72 %736 мм0.3 м/с2 %
    08:00Ясно и безоблачно+18°C66 %737 мм0.8 м/с2 %
    11:00Ясно и безоблачно+23°C59 %738 мм2.0 м/с7 %
    14:00Ясно и безоблачно+25°C55 %738 мм2.5 м/с13 %
    17:00Облачно с прояснениями+26°C53 %737 мм2.9 м/с12 %
    20:00Небольшая облачность+23°C73 %737 мм1.9 м/с5 %
    23:00Облачно с прояснениями+17°C79 %737 мм1.1 м/с2 %
  • 19июля
    Пятница
    +14°
    +28°
    Практически безоблачно
    ВремяПогодаТемператураВлажностьДавлениеВетер, м/сВероятность осадков
    02:00Облачно с прояснениями+15°C75 %737 мм1.2 м/с2 %
    05:00Ясно и безоблачно+14°C78 %736 мм0.6 м/с2 %
    08:00Ясно и безоблачно+19°C65 %737 мм0.8 м/с4 %
    11:00Практически безоблачно+26°C50 %738 мм2.7 м/с14 %
    14:00Практически безоблачно+27°C50 %737 мм2.7 м/с32 %
    17:00Практически безоблачно+28°C51 %736 мм3.0 м/с36 %
    20:00Ясно и безоблачно+24°C69 %736 мм1.6 м/с19 %
    23:00Облачно с прояснениями+17°C77 %735 мм1.2 м/с3 %
Мы используем cookies
Соглашаюсь